Time;durP1;ratioP1;P1;durP2;ratioP2;P2;SDS_P1;SDS_P2;PMS_P1;PMS_P2;Temp;Humidity;BMP_temperature;BMP_pressure;BME280_temperature;BME280_humidity;BME280_pressure;Samples;Min_cycle;Max_cycle;Signal;HPM_P1;HPM_P2
2024/01/26 00:08:52;;;;;;;3.42;2.20;;;;;;;18.30;58.67;101834.13;21009663;28;20485;-66
2024/01/26 00:18:54;;;;;;;2.72;2.22;;;;;;;18.34;58.61;101811.34;20990440;28;20051;-66
2024/01/26 00:28:56;;;;;;;2.85;2.30;;;;;;;18.36;58.73;101806.69;21028308;28;20331;-67
2024/01/26 00:38:58;;;;;;;3.88;3.10;;;;;;;18.28;59.04;101801.03;21040770;28;20052;-67
2024/01/26 00:49:00;;;;;;;3.45;2.25;;;;;;;18.34;58.96;101802.38;20980396;28;20059;-67
2024/01/26 00:59:01;;;;;;;2.40;2.20;;;;;;;18.46;58.52;101811.38;20947537;27;20407;-67
2024/01/26 01:09:05;;;;;;;2.97;2.40;;;;;;;18.44;58.81;101783.69;20996588;28;20568;-66
2024/01/26 01:19:07;;;;;;;2.72;2.40;;;;;;;18.38;59.02;101764.31;21005415;28;20434;-66
2024/01/26 01:29:09;;;;;;;2.88;2.50;;;;;;;18.38;59.21;101761.59;20963262;28;20048;-66
2024/01/26 01:39:11;;;;;;;3.22;2.60;;;;;;;18.41;59.17;101741.66;20971907;28;20481;-66
2024/01/26 01:49:13;;;;;;;3.38;2.60;;;;;;;18.45;59.32;101737.72;21039689;28;20055;-66
2024/01/26 01:59:15;;;;;;;2.30;2.10;;;;;;;18.48;59.22;101717.75;21008634;28;20044;-66
2024/01/26 02:09:17;;;;;;;2.33;2.13;;;;;;;18.59;59.12;101714.22;21011312;28;20394;-66
2024/01/26 02:19:20;;;;;;;2.65;1.90;;;;;;;18.66;58.86;101683.06;21004269;28;20401;-66
2024/01/26 02:29:25;;;;;;;2.00;1.80;;;;;;;18.68;58.77;101681.13;21010123;28;20097;-66
2024/01/26 02:39:28;;;;;;;1.70;1.60;;;;;;;18.69;58.62;101672.03;20990635;28;20141;-66
2024/01/26 02:49:31;;;;;;;2.15;1.73;;;;;;;18.55;58.76;101632.69;20983002;28;20097;-66
2024/01/26 02:59:33;;;;;;;2.20;2.00;;;;;;;18.72;58.89;101627.78;20974947;28;20107;-66
2024/01/26 03:09:35;;;;;;;2.03;1.90;;;;;;;18.74;58.58;101591.59;21013252;28;20052;-66
2024/01/26 03:19:37;;;;;;;1.70;1.60;;;;;;;18.73;58.97;101594.44;20977958;28;20468;-66
2024/01/26 03:29:39;;;;;;;1.88;1.67;;;;;;;18.72;58.84;101576.53;20957094;28;20143;-66
2024/01/26 03:39:40;;;;;;;1.67;1.58;;;;;;;18.74;58.73;101544.91;20981048;28;20144;-66
2024/01/26 03:49:44;;;;;;;1.63;1.52;;;;;;;18.62;58.90;101531.47;20985251;28;20047;-66
2024/01/26 03:59:46;;;;;;;2.00;1.80;;;;;;;18.75;58.90;101514.25;21030039;28;20133;-66
2024/01/26 04:09:48;;;;;;;1.77;1.67;;;;;;;18.65;58.96;101476.41;20964840;28;20528;-66
2024/01/26 04:19:50;;;;;;;1.70;1.60;;;;;;;18.80;58.95;101458.94;20987927;28;20044;-66
2024/01/26 04:29:52;;;;;;;1.42;1.25;;;;;;;18.84;58.68;101432.56;20989179;28;20131;-66
2024/01/26 04:39:53;;;;;;;1.85;1.50;;;;;;;18.84;58.84;101419.06;20983788;28;20040;-66
2024/01/26 04:49:56;;;;;;;1.33;1.23;;;;;;;18.89;58.73;101397.94;20943835;28;20460;-66
2024/01/26 04:59:58;;;;;;;1.15;1.08;;;;;;;18.94;58.79;101393.00;20970376;28;20045;-66
2024/01/26 05:10:00;;;;;;;1.20;1.10;;;;;;;18.90;58.81;101369.97;20969016;28;20055;-66
2024/01/26 05:20:04;;;;;;;1.15;1.08;;;;;;;18.97;58.99;101373.91;20972782;28;20055;-66
2024/01/26 05:30:07;;;;;;;2.38;1.30;;;;;;;18.95;59.05;101342.63;20982680;28;20048;-66
2024/01/26 05:40:09;;;;;;;1.15;1.05;;;;;;;18.96;59.23;101339.78;20967852;28;20514;-66
2024/01/26 05:50:11;;;;;;;1.30;1.20;;;;;;;19.02;59.19;101322.25;20966802;27;20500;-66
2024/01/26 06:00:13;;;;;;;2.55;1.38;;;;;;;18.90;59.09;101262.06;20956033;28;20044;-66
2024/01/26 06:10:19;;;;;;;2.35;1.20;;;;;;;19.04;59.36;101257.38;20969043;28;20052;-66
2024/01/26 06:20:20;;;;;;;1.15;1.02;;;;;;;19.04;59.46;101239.31;20957592;27;20052;-66
2024/01/26 06:30:22;;;;;;;1.10;1.00;;;;;;;19.09;59.14;101228.97;20953604;28;20163;-66
2024/01/26 06:40:24;;;;;;;1.00;0.85;;;;;;;19.10;59.40;101222.56;20976636;28;20059;-66
2024/01/26 06:50:26;;;;;;;1.75;1.02;;;;;;;19.17;59.46;101228.28;20960092;28;20063;-66
2024/01/26 07:00:29;;;;;;;1.10;0.98;;;;;;;19.22;59.17;101228.72;20970331;28;20194;-66
2024/01/26 07:10:31;;;;;;;0.88;0.88;;;;;;;19.25;59.19;101204.16;20952707;28;20050;-66
2024/01/26 07:20:36;;;;;;;0.93;0.88;;;;;;;19.26;59.13;101178.03;20955074;28;20509;-66
2024/01/26 07:30:40;;;;;;;0.70;0.70;;;;;;;19.26;59.20;101200.47;20957611;28;20039;-66
2024/01/26 07:40:41;;;;;;;0.60;0.60;;;;;;;19.25;59.43;101166.38;20949851;28;20051;-66
2024/01/26 07:50:43;;;;;;;0.65;0.65;;;;;;;19.23;59.71;101157.56;20968772;28;20230;-66
2024/01/26 08:00:47;;;;;;;0.63;0.60;;;;;;;19.24;59.36;101159.25;20953680;28;20095;-67
2024/01/26 08:10:49;;;;;;;0.60;0.60;;;;;;;19.26;59.45;101151.88;20942001;28;20459;-65
2024/01/26 08:20:51;;;;;;;0.60;0.60;;;;;;;19.24;60.10;101145.78;20986269;28;20454;-73
2024/01/26 08:30:53;;;;;;;0.60;0.60;;;;;;;19.38;60.00;101135.56;21003917;28;20048;-74
2024/01/26 08:40:54;;;;;;;0.55;0.55;;;;;;;19.50;59.87;101120.94;21015955;28;20047;-74
2024/01/26 08:50:56;;;;;;;0.43;0.43;;;;;;;19.59;59.79;101131.88;21005092;28;20048;-75
2024/01/26 09:00:58;;;;;;;0.70;0.60;;;;;;;19.68;59.51;101139.13;21012287;28;20163;-74
2024/01/26 09:11:00;;;;;;;0.60;0.60;;;;;;;19.77;59.29;101149.06;21004548;28;20138;-75
2024/01/26 09:21:02;;;;;;;0.60;0.60;;;;;;;19.83;59.51;101153.91;21002958;28;20052;-71
2024/01/26 09:31:04;;;;;;;0.80;0.60;;;;;;;19.90;60.01;101147.94;20987111;28;20044;-71
2024/01/26 09:41:06;;;;;;;0.65;0.65;;;;;;;19.95;60.25;101249.22;20991690;28;20326;-70
2024/01/26 09:51:08;;;;;;;0.75;0.70;;;;;;;20.05;59.88;101297.88;20998971;28;20063;-71
2024/01/26 10:01:10;;;;;;;0.95;0.55;;;;;;;20.13;59.37;101303.41;21005036;28;20048;-70
2024/01/26 10:11:12;;;;;;;1.17;0.60;;;;;;;20.32;58.95;101326.03;20989582;28;20143;-70
2024/01/26 10:21:15;;;;;;;0.90;0.60;;;;;;;20.39;58.76;101338.03;20997027;28;20074;-70
2024/01/26 10:31:17;;;;;;;22.73;6.40;;;;;;;20.16;60.17;101417.66;20990507;28;20139;-72
2024/01/26 10:41:21;;;;;;;18.10;5.03;;;;;;;19.91;60.64;101442.34;20978045;28;20060;-76
2024/01/26 10:51:24;;;;;;;11.52;3.30;;;;;;;19.82;60.02;101462.88;20987455;28;20192;-74
2024/01/26 11:01:27;;;;;;;6.47;2.70;;;;;;;19.89;59.43;101475.88;20959402;28;20311;-72
2024/01/26 11:11:32;;;;;;;6.57;2.28;;;;;;;19.94;58.90;101495.28;20977897;28;20052;-72
2024/01/26 11:21:38;;;;;;;4.55;1.60;;;;;;;20.02;58.38;101502.69;20967174;28;20052;-75
2024/01/26 11:31:43;;;;;;;4.20;1.73;;;;;;;19.94;57.47;101539.34;20976871;28;20087;-74
2024/01/26 11:41:45;;;;;;;2.90;1.13;;;;;;;19.99;56.57;101564.13;20967490;28;20052;-74
2024/01/26 11:51:47;;;;;;;3.40;1.23;;;;;;;20.11;55.45;101582.97;20984657;28;20047;-74
2024/01/26 12:01:48;;;;;;;2.83;1.20;;;;;;;20.15;54.67;101606.06;20993293;28;20105;-74
2024/01/26 12:11:50;;;;;;;3.17;1.20;;;;;;;20.08;54.03;101648.97;20993776;28;20053;-74
2024/01/26 12:21:53;;;;;;;3.80;1.42;;;;;;;19.92;53.75;101659.41;20990278;28;20054;-74
2024/01/26 12:32:10;;;;;;;2.00;0.77;;;;;;;19.78;53.63;101685.69;20986487;27;20048;-74
2024/01/26 12:42:12;;;;;;;2.58;1.15;;;;;;;19.84;53.30;101727.56;20986523;27;20052;-75
2024/01/26 12:52:15;;;;;;;1.90;1.02;;;;;;;19.84;54.39;101747.31;20990607;28;20060;-72
2024/01/26 13:02:17;;;;;;;3.38;1.02;;;;;;;19.85;54.04;101777.91;21002918;28;20065;-69
2024/01/26 13:12:19;;;;;;;3.05;1.17;;;;;;;19.81;54.00;101822.38;21008658;27;20123;-70
2024/01/26 13:22:21;;;;;;;2.45;0.90;;;;;;;19.82;54.38;101843.84;20992726;28;20281;-69
2024/01/26 13:32:22;;;;;;;3.55;1.00;;;;;;;19.93;54.96;101871.91;20968754;28;20049;-70
2024/01/26 13:42:24;;;;;;;2.47;1.05;;;;;;;20.00;54.64;101889.31;20868095;28;20099;-69
2024/01/26 13:52:28;;;;;;;1.95;1.00;;;;;;;20.07;54.18;101927.50;20873814;28;21616;-67
2024/01/26 14:02:29;;;;;;;2.97;0.90;;;;;;;20.06;53.63;101960.91;20892729;28;20110;-70
2024/01/26 14:12:31;;;;;;;3.67;0.88;;;;;;;20.00;53.48;101987.47;20872082;28;20417;-69
2024/01/26 14:22:33;;;;;;;1.60;0.70;;;;;;;20.01;53.08;102020.78;20887604;28;20061;-68
2024/01/26 14:32:35;;;;;;;1.98;0.77;;;;;;;20.00;52.87;102051.50;20915315;28;20064;-69
2024/01/26 14:42:37;;;;;;;3.10;0.90;;;;;;;20.00;52.51;102097.44;20971618;28;20059;-66
2024/01/26 14:52:42;;;;;;;2.33;0.80;;;;;;;19.81;51.88;102096.13;20981447;28;20219;-69
2024/01/26 15:02:44;;;;;;;2.05;0.90;;;;;;;19.82;51.21;102141.09;20975073;28;20056;-71
2024/01/26 15:12:47;;;;;;;3.03;0.88;;;;;;;19.73;51.45;102166.13;20977847;28;20044;-70
2024/01/26 15:22:50;;;;;;;3.28;0.93;;;;;;;19.69;51.22;102200.66;20982658;28;20055;-69
2024/01/26 15:32:52;;;;;;;2.17;1.00;;;;;;;19.68;51.67;102223.25;20972924;28;20087;-70
2024/01/26 15:42:54;;;;;;;3.83;0.80;;;;;;;19.56;52.31;102243.94;20980984;28;20106;-68
2024/01/26 15:52:55;;;;;;;3.60;1.10;;;;;;;19.52;56.08;102250.53;20962251;28;20098;-69
2024/01/26 16:02:57;;;;;;;3.35;1.00;;;;;;;19.69;58.00;102284.41;20944676;28;20055;-70
2024/01/26 16:12:59;;;;;;;1.67;0.77;;;;;;;19.92;56.84;102308.00;20949184;28;20045;-71
2024/01/26 16:23:01;;;;;;;3.80;1.27;;;;;;;19.92;55.80;102324.22;20964173;28;20052;-67
2024/01/26 16:33:04;;;;;;;2.13;1.00;;;;;;;19.77;55.38;102345.94;20954369;28;20052;-70
2024/01/26 16:43:06;;;;;;;5.03;1.27;;;;;;;19.72;55.21;102367.06;20937408;28;20052;-72
2024/01/26 16:53:08;;;;;;;3.47;1.30;;;;;;;19.66;54.79;102389.13;20961684;28;20489;-62
2024/01/26 17:03:10;;;;;;;3.72;1.20;;;;;;;19.63;54.13;102413.66;20961961;28;20055;-63
2024/01/26 17:13:11;;;;;;;3.72;1.35;;;;;;;19.41;54.11;102434.09;20971852;27;20875;-65
2024/01/26 17:23:13;;;;;;;3.00;1.20;;;;;;;19.14;54.17;102464.78;20990016;27;20051;-64
2024/01/26 17:33:16;;;;;;;5.40;1.23;;;;;;;18.87;54.76;102468.34;21011881;27;20466;-64
2024/01/26 17:43:18;;;;;;;4.13;1.35;;;;;;;18.68;54.59;102501.09;21013761;28;20055;-65
2024/01/26 17:53:21;;;;;;;4.00;1.42;;;;;;;18.53;54.62;102519.16;21020546;28;20424;-64
2024/01/26 18:03:23;;;;;;;5.18;1.40;;;;;;;18.42;54.76;102538.78;21019357;27;20526;-64
2024/01/26 18:13:24;;;;;;;5.10;1.50;;;;;;;18.33;54.81;102556.41;21011267;27;20055;-65
2024/01/26 18:23:27;;;;;;;5.13;1.40;;;;;;;18.26;54.84;102576.63;21004068;27;20400;-65
2024/01/26 18:33:28;;;;;;;3.75;1.27;;;;;;;18.16;54.79;102586.28;21018810;28;20048;-65
2024/01/26 18:43:30;;;;;;;2.67;1.00;;;;;;;18.15;54.35;102598.03;20996591;28;20652;-63
2024/01/26 18:53:32;;;;;;;4.70;1.38;;;;;;;18.10;54.23;102618.03;20979297;28;20603;-63
2024/01/26 19:03:34;;;;;;;4.30;1.35;;;;;;;18.00;53.94;102624.91;21013357;28;20075;-63
2024/01/26 19:13:37;;;;;;;3.20;1.30;;;;;;;17.92;53.88;102632.63;21002258;28;20048;-63
2024/01/26 19:23:39;;;;;;;5.38;1.50;;;;;;;17.87;53.46;102646.34;21011181;28;20424;-63
2024/01/26 19:33:41;;;;;;;5.65;1.85;;;;;;;17.82;53.43;102641.28;20999981;28;20083;-63
2024/01/26 19:43:45;;;;;;;5.07;1.35;;;;;;;17.75;53.24;102660.56;21005339;28;20106;-63
2024/01/26 19:53:47;;;;;;;4.88;1.55;;;;;;;17.69;53.02;102670.75;21004774;28;20055;-62
2024/01/26 20:03:48;;;;;;;4.40;1.40;;;;;;;17.61;52.91;102678.44;21019210;28;20063;-63
2024/01/26 20:13:50;;;;;;;3.47;1.35;;;;;;;17.55;52.81;102694.97;20991061;28;20052;-63
2024/01/26 20:23:53;;;;;;;5.45;1.80;;;;;;;17.49;52.65;102701.56;21012788;28;20502;-63
2024/01/26 20:33:55;;;;;;;4.57;2.00;;;;;;;17.45;52.45;102708.09;21033811;28;20521;-62
2024/01/26 20:43:57;;;;;;;4.00;1.40;;;;;;;17.40;52.24;102718.25;21007415;28;20125;-63
2024/01/26 20:53:59;;;;;;;3.53;1.25;;;;;;;17.35;52.33;102714.97;21007633;28;20048;-63
2024/01/26 21:04:00;;;;;;;5.30;1.60;;;;;;;17.28;52.12;102735.97;21027456;28;20056;-63
2024/01/26 21:14:03;;;;;;;4.72;1.58;;;;;;;17.23;51.95;102743.44;21016296;28;20044;-63
2024/01/26 21:24:06;;;;;;;5.70;1.67;;;;;;;17.19;51.78;102748.13;21033274;28;20530;-63
2024/01/26 21:34:08;;;;;;;4.32;1.65;;;;;;;17.20;51.63;102766.00;21024980;28;20045;-63
2024/01/26 21:44:10;;;;;;;6.47;1.77;;;;;;;17.11;51.74;102771.91;21009039;28;20044;-62
2024/01/26 21:54:15;;;;;;;4.05;1.42;;;;;;;17.00;51.99;102777.88;21013022;28;20059;-63
2024/01/26 22:04:17;;;;;;;2.60;1.40;;;;;;;17.00;51.78;102782.41;21016018;28;20412;-63
2024/01/26 22:14:19;;;;;;;5.22;1.75;;;;;;;17.00;51.73;102775.19;20989854;27;20507;-63
2024/01/26 22:24:21;;;;;;;3.72;1.23;;;;;;;17.00;51.55;102775.19;21009957;28;20052;-63
2024/01/26 22:34:23;;;;;;;5.00;1.52;;;;;;;16.99;51.48;102786.91;20988768;28;20059;-63
2024/01/26 22:44:26;;;;;;;4.60;1.50;;;;;;;16.96;51.41;102781.66;21005531;28;20455;-62
2024/01/26 22:54:27;;;;;;;5.40;1.63;;;;;;;16.98;51.34;102803.16;21005106;28;20389;-63
2024/01/26 23:04:29;;;;;;;3.90;1.77;;;;;;;16.99;51.09;102816.50;21002162;28;20141;-63
2024/01/26 23:14:31;;;;;;;6.78;2.00;;;;;;;17.06;50.94;102825.13;21011997;28;20056;-63
2024/01/26 23:24:33;;;;;;;4.80;1.60;;;;;;;17.16;50.62;102839.81;20991968;28;20044;-63
2024/01/26 23:34:34;;;;;;;5.70;1.67;;;;;;;17.21;50.34;102859.25;21005265;28;20058;-63
2024/01/26 23:44:37;;;;;;;2.72;1.45;;;;;;;17.30;49.91;102843.59;20986067;28;20488;-63
2024/01/26 23:54:39;;;;;;;2.95;1.45;;;;;;;17.35;49.57;102854.97;20991385;28;20416;-63
